Time;durP1;ratioP1;P1;durP2;ratioP2;P2;SDS_P1;SDS_P2;PMS_P1;PMS_P2;Temp;Humidity;BMP_temperature;BMP_pressure;BME280_temperature;BME280_humidity;BME280_pressure;Samples;Min_cycle;Max_cycle;Signal;HPM_P1;HPM_P2
2023/07/22 00:00:12;;;;;;;8.70;4.60;;;;;;;25.41;43.60;94922.38;5112705;28;20034;-81
2023/07/22 00:02:38;;;;;;;8.95;4.80;;;;;;;25.42;43.45;94921.06;5108152;28;20058;-81
2023/07/22 00:05:04;;;;;;;10.88;4.75;;;;;;;25.43;43.61;94922.59;5108865;28;20114;-81
2023/07/22 00:07:29;;;;;;;9.55;4.88;;;;;;;25.45;43.42;94933.28;5107497;28;20110;-81
2023/07/22 00:09:55;;;;;;;10.77;4.68;;;;;;;25.49;43.31;94940.13;5108521;28;20015;-81
2023/07/22 00:12:25;;;;;;;9.90;5.18;;;;;;;25.45;43.51;94939.69;5106189;28;20031;-81
2023/07/22 00:14:51;;;;;;;8.23;4.75;;;;;;;25.45;43.43;94936.88;5107739;28;20028;-81
2023/07/22 00:17:16;;;;;;;6.60;5.13;;;;;;;25.45;43.65;94938.94;5107815;28;20112;-81
2023/07/22 00:19:41;;;;;;;9.43;4.65;;;;;;;25.44;43.72;94935.34;5107126;28;20055;-81
2023/07/22 00:22:07;;;;;;;10.63;5.20;;;;;;;25.40;43.83;94941.31;5108140;28;20095;-81
2023/07/22 00:24:32;;;;;;;7.90;5.40;;;;;;;25.39;43.83;94941.81;5107078;28;20033;-82
2023/07/22 00:26:58;;;;;;;12.63;4.82;;;;;;;25.37;43.69;94938.78;5108171;28;20062;-81
2023/07/22 00:29:23;;;;;;;8.05;5.40;;;;;;;25.37;44.05;94936.75;5107456;28;20024;-82
2023/07/22 00:31:49;;;;;;;7.70;4.75;;;;;;;25.34;44.00;94937.78;5107934;28;20482;-82
2023/07/22 00:34:14;;;;;;;10.40;5.10;;;;;;;25.36;44.10;94938.03;5107228;28;20031;-82
2023/07/22 00:36:40;;;;;;;8.07;4.68;;;;;;;25.25;44.52;94926.19;5107057;28;20334;-82
2023/07/22 00:39:05;;;;;;;9.95;5.32;;;;;;;25.04;45.03;94934.38;5107611;28;20070;-81
2023/07/22 00:41:31;;;;;;;12.73;5.43;;;;;;;25.06;45.05;94926.97;5106843;28;20160;-81
2023/07/22 00:43:56;;;;;;;11.32;5.25;;;;;;;25.09;45.19;94939.97;5107726;28;20517;-80
2023/07/22 00:46:22;;;;;;;9.45;4.93;;;;;;;24.99;45.25;94944.41;5106504;28;20110;-81
2023/07/22 00:48:48;;;;;;;9.30;5.00;;;;;;;24.89;45.51;94944.06;5107684;28;20024;-81
2023/07/22 00:51:14;;;;;;;9.73;5.10;;;;;;;24.73;45.86;94942.22;5105527;28;20045;-81
2023/07/22 00:53:40;;;;;;;9.70;5.50;;;;;;;24.61;46.49;94958.47;5106944;28;20020;-81
2023/07/22 00:56:05;;;;;;;11.40;4.82;;;;;;;24.53;46.61;94960.34;5107704;28;20030;-81
2023/07/22 00:58:30;;;;;;;10.45;5.25;;;;;;;24.52;46.69;94946.81;5106507;28;20392;-81
2023/07/22 01:00:56;;;;;;;8.63;4.63;;;;;;;24.56;46.66;94958.53;5110170;28;20039;-80
2023/07/22 01:03:21;;;;;;;14.73;5.45;;;;;;;24.59;46.61;94943.41;5108431;28;20028;-81
2023/07/22 01:05:48;;;;;;;13.45;5.97;;;;;;;24.63;46.49;94941.06;5107560;28;20478;-83
2023/07/22 01:08:13;;;;;;;13.98;5.22;;;;;;;24.65;46.41;94927.22;5105812;28;20031;-81
2023/07/22 01:10:39;;;;;;;8.60;5.35;;;;;;;24.69;46.20;94924.88;5106885;28;20032;-81
2023/07/22 01:13:05;;;;;;;13.43;5.30;;;;;;;24.70;46.14;94926.41;5106886;28;20019;-80
2023/07/22 01:15:30;;;;;;;8.13;4.90;;;;;;;24.68;46.47;94933.84;5106102;28;20528;-80
2023/07/22 01:18:01;;;;;;;8.20;4.95;;;;;;;24.64;46.35;94932.09;5105972;28;20058;-81
2023/07/22 01:20:27;;;;;;;10.18;4.88;;;;;;;24.70;46.31;94931.28;5104726;28;20031;-81
2023/07/22 01:22:53;;;;;;;11.20;4.93;;;;;;;24.59;46.72;94929.34;5106010;28;20024;-81
2023/07/22 01:25:22;;;;;;;9.93;5.28;;;;;;;24.59;46.71;94927.31;5106634;28;20025;-82
2023/07/22 01:27:51;;;;;;;10.60;5.45;;;;;;;24.59;47.17;94918.88;5107207;28;20020;-82
2023/07/22 01:30:17;;;;;;;8.25;5.10;;;;;;;24.61;47.05;94915.56;5106490;28;20488;-82
2023/07/22 01:32:43;;;;;;;8.18;4.70;;;;;;;24.61;47.21;94919.13;5106404;28;20111;-82
2023/07/22 01:35:08;;;;;;;10.23;4.93;;;;;;;24.60;47.12;94917.59;5106889;28;20111;-82
2023/07/22 01:37:34;;;;;;;7.63;5.20;;;;;;;24.62;46.87;94920.63;5105860;28;20019;-82
2023/07/22 01:40:00;;;;;;;9.75;4.90;;;;;;;24.58;46.69;94913.78;5106930;28;20091;-81
2023/07/22 01:42:28;;;;;;;11.93;5.40;;;;;;;24.60;47.07;94926.03;5106043;28;20072;-82
2023/07/22 01:44:53;;;;;;;8.73;5.13;;;;;;;24.61;47.31;94916.31;5106952;28;20028;-81
2023/07/22 01:47:19;;;;;;;8.65;4.95;;;;;;;24.58;47.55;94903.31;5106021;28;20081;-82
2023/07/22 01:49:45;;;;;;;10.65;5.38;;;;;;;24.58;47.61;94905.34;5106391;28;20053;-82
2023/07/22 01:52:10;;;;;;;9.90;5.45;;;;;;;24.56;47.30;94905.91;5106680;28;20027;-82
2023/07/22 01:54:35;;;;;;;10.60;5.43;;;;;;;24.54;47.62;94908.47;5106203;28;20035;-82
2023/07/22 01:57:01;;;;;;;10.50;6.28;;;;;;;24.53;47.86;94904.13;5106967;28;20475;-82
2023/07/22 01:59:26;;;;;;;8.93;5.45;;;;;;;24.53;48.11;94900.56;5105560;28;20482;-83
2023/07/22 02:01:52;;;;;;;11.70;5.75;;;;;;;24.49;48.18;94902.94;5107095;28;20076;-81
2023/07/22 02:04:17;;;;;;;9.43;5.57;;;;;;;24.49;48.14;94908.56;5110025;28;20024;-82
2023/07/22 02:06:42;;;;;;;9.73;5.70;;;;;;;24.46;48.30;94913.16;5106671;28;20028;-81
2023/07/22 02:09:08;;;;;;;10.98;5.38;;;;;;;24.44;48.51;94907.34;5106240;28;20020;-82
2023/07/22 02:11:37;;;;;;;8.95;5.57;;;;;;;24.42;48.13;94901.47;5105680;28;20115;-82
2023/07/22 02:14:06;;;;;;;9.88;5.43;;;;;;;24.38;47.89;94898.22;5106396;28;20341;-82
2023/07/22 02:16:35;;;;;;;10.68;5.28;;;;;;;24.36;47.80;94906.38;5105418;28;20450;-82
2023/07/22 02:19:02;;;;;;;11.02;5.72;;;;;;;24.32;48.11;94905.91;5105155;28;20032;-82
2023/07/22 02:21:28;;;;;;;9.98;5.75;;;;;;;24.29;48.60;94913.34;5105622;28;20029;-82
2023/07/22 02:23:53;;;;;;;11.43;5.57;;;;;;;24.30;48.41;94916.91;5106669;28;20404;-81
2023/07/22 02:26:19;;;;;;;7.97;5.38;;;;;;;24.30;48.55;94914.84;5106064;28;20431;-81
2023/07/22 02:28:44;;;;;;;9.02;5.60;;;;;;;24.28;47.70;94923.06;5105816;28;20059;-81
2023/07/22 02:31:10;;;;;;;9.10;4.97;;;;;;;24.25;47.82;94914.91;5106237;28;20030;-82
2023/07/22 02:33:36;;;;;;;9.20;4.95;;;;;;;24.24;47.77;94919.03;5105527;28;20057;-83
2023/07/22 02:36:01;;;;;;;10.00;5.63;;;;;;;24.17;47.79;94920.38;5106839;28;20106;-81
2023/07/22 02:38:27;;;;;;;10.10;5.60;;;;;;;24.20;48.33;94936.19;5105644;28;20107;-82
2023/07/22 02:40:52;;;;;;;8.60;5.13;;;;;;;24.16;48.67;94932.16;5106280;28;20629;-82
2023/07/22 02:43:17;;;;;;;8.93;5.22;;;;;;;24.12;48.92;94921.19;5105929;28;20020;-82
2023/07/22 02:45:44;;;;;;;10.93;5.32;;;;;;;24.10;48.92;94921.72;5105580;28;20511;-82
2023/07/22 02:48:09;;;;;;;9.35;5.95;;;;;;;24.03;49.10;94918.75;5104684;28;20024;-82
2023/07/22 02:50:34;;;;;;;9.38;5.72;;;;;;;23.99;49.40;94930.25;5105467;28;20016;-82
2023/07/22 02:53:00;;;;;;;9.68;6.10;;;;;;;23.96;49.32;94925.69;5106461;28;20032;-83
2023/07/22 02:55:25;;;;;;;10.45;5.93;;;;;;;23.98;49.04;94923.13;5105491;28;20031;-82
2023/07/22 02:57:51;;;;;;;8.60;5.28;;;;;;;23.97;49.19;94930.03;5107327;28;20016;-82
2023/07/22 03:00:23;;;;;;;9.18;5.22;;;;;;;23.95;49.49;94931.84;5108962;28;20417;-83
2023/07/22 03:02:50;;;;;;;9.40;5.87;;;;;;;23.92;49.32;94924.47;5109883;28;20474;-82
2023/07/22 03:05:16;;;;;;;8.15;5.40;;;;;;;23.89;49.46;94925.53;5109404;28;20263;-83
2023/07/22 03:07:42;;;;;;;10.57;5.82;;;;;;;23.88;49.20;94924.75;5116455;28;20024;-83
2023/07/22 03:10:08;;;;;;;9.75;5.60;;;;;;;23.80;49.37;94927.41;5109813;28;20031;-83
2023/07/22 03:12:34;;;;;;;8.75;5.55;;;;;;;23.80;49.30;94921.03;5109178;28;20039;-82
2023/07/22 03:14:59;;;;;;;15.25;5.93;;;;;;;23.70;49.47;94928.25;5110242;28;20449;-82
2023/07/22 03:17:25;;;;;;;9.63;5.80;;;;;;;23.68;49.73;94931.56;5108171;28;20040;-83
2023/07/22 03:19:50;;;;;;;13.40;5.80;;;;;;;23.72;49.64;94934.09;5107958;28;20055;-81
2023/07/22 03:22:17;;;;;;;14.23;5.63;;;;;;;23.70;49.63;94926.22;5108685;28;20133;-82
2023/07/22 03:24:43;;;;;;;11.95;5.65;;;;;;;23.68;50.04;94937.19;5108853;28;20397;-82
2023/07/22 03:27:08;;;;;;;8.32;5.68;;;;;;;23.64;49.82;94933.91;5109032;27;20062;-82
2023/07/22 03:29:34;;;;;;;11.13;5.78;;;;;;;23.64;50.01;94941.56;5107037;28;20031;-82
2023/07/22 03:31:59;;;;;;;11.52;5.68;;;;;;;23.66;49.82;94948.16;5107803;28;20027;-82
2023/07/22 03:34:29;;;;;;;11.35;5.50;;;;;;;23.62;50.03;94953.31;5108295;28;20103;-82
2023/07/22 03:36:55;;;;;;;11.43;5.50;;;;;;;23.66;49.77;94953.03;5107726;28;20089;-81
2023/07/22 03:39:20;;;;;;;9.75;5.20;;;;;;;23.67;49.54;94951.75;5108305;28;20032;-82
2023/07/22 03:41:46;;;;;;;13.15;5.75;;;;;;;23.67;49.83;94963.72;5108739;28;20031;-82
2023/07/22 03:44:11;;;;;;;10.23;5.50;;;;;;;23.69;49.78;94961.16;5107143;28;20032;-81
2023/07/22 03:46:37;;;;;;;10.38;5.70;;;;;;;23.68;49.71;94951.19;5107919;28;20023;-83
2023/07/22 03:49:03;;;;;;;8.75;5.25;;;;;;;23.69;49.63;94952.75;5108808;28;20605;-83
2023/07/22 03:51:28;;;;;;;8.93;6.28;;;;;;;23.66;49.76;94962.19;5107648;28;20023;-83
2023/07/22 03:53:54;;;;;;;12.05;6.10;;;;;;;23.69;49.81;94977.25;5109163;28;20172;-81
2023/07/22 03:56:20;;;;;;;8.95;5.93;;;;;;;23.69;49.64;94972.41;5108142;28;20034;-81
2023/07/22 03:58:45;;;;;;;11.07;6.35;;;;;;;23.70;50.08;94973.16;5108558;28;20024;-82
2023/07/22 04:01:12;;;;;;;10.35;5.65;;;;;;;23.71;49.94;94974.66;5108113;28;20031;-82
2023/07/22 04:03:37;;;;;;;10.07;5.60;;;;;;;23.70;49.86;94975.97;5107616;28;20027;-82
2023/07/22 04:06:03;;;;;;;9.48;5.63;;;;;;;23.71;50.10;94985.91;5108365;28;20023;-82
2023/07/22 04:08:28;;;;;;;13.68;6.03;;;;;;;23.72;50.09;94979.75;5107645;28;20023;-81
2023/07/22 04:10:54;;;;;;;9.65;6.28;;;;;;;23.73;50.12;94970.03;5109031;28;20024;-81
2023/07/22 04:13:20;;;;;;;11.07;5.85;;;;;;;23.76;50.18;94974.63;5107545;28;20031;-82
2023/07/22 04:15:47;;;;;;;11.40;6.57;;;;;;;23.76;49.93;94971.81;5107696;28;20023;-81
2023/07/22 04:18:12;;;;;;;8.77;5.90;;;;;;;23.77;50.27;94970.53;5107989;28;20149;-82
2023/07/22 04:20:38;;;;;;;7.53;5.70;;;;;;;23.79;49.99;94979.19;5107518;28;20106;-82
2023/07/22 04:23:03;;;;;;;9.27;5.80;;;;;;;23.84;50.03;94975.56;5107877;28;20043;-82
2023/07/22 04:25:28;;;;;;;9.05;5.25;;;;;;;23.89;50.27;94988.03;5107115;28;20027;-82
2023/07/22 04:27:54;;;;;;;12.10;5.63;;;;;;;23.88;50.16;94980.91;5108272;28;20028;-82
2023/07/22 04:30:20;;;;;;;14.07;6.53;;;;;;;23.92;50.47;94992.59;5107243;28;20053;-82
2023/07/22 04:32:48;;;;;;;9.70;5.85;;;;;;;23.97;50.02;95000.22;5107889;28;20019;-82
2023/07/22 04:35:14;;;;;;;12.88;6.13;;;;;;;23.99;50.30;94997.66;5107260;28;20023;-82
2023/07/22 04:37:39;;;;;;;9.15;5.97;;;;;;;24.01;50.32;94994.31;5107727;28;20039;-81
2023/07/22 04:40:08;;;;;;;9.65;5.70;;;;;;;24.04;50.17;95001.69;5107353;28;20031;-82
2023/07/22 04:42:34;;;;;;;8.70;5.57;;;;;;;24.09;50.06;95004.44;5106945;28;20034;-82
2023/07/22 04:44:59;;;;;;;9.05;6.15;;;;;;;24.10;50.10;94994.72;5107611;27;20023;-83
2023/07/22 04:47:24;;;;;;;11.90;6.28;;;;;;;24.14;49.87;94990.84;5106847;28;20035;-83
2023/07/22 04:49:50;;;;;;;11.05;5.68;;;;;;;24.18;50.15;94994.91;5107683;28;20092;-83
2023/07/22 04:52:15;;;;;;;11.40;6.70;;;;;;;24.22;49.63;94994.63;5107021;28;20591;-83
2023/07/22 04:54:42;;;;;;;10.90;5.85;;;;;;;24.26;49.69;94995.88;5107234;28;20032;-83
2023/07/22 04:57:08;;;;;;;7.93;5.85;;;;;;;24.29;49.75;94999.66;5107046;28;20110;-82
2023/07/22 04:59:33;;;;;;;10.75;5.75;;;;;;;24.33;49.80;95002.94;5106782;28;20432;-83
2023/07/22 05:01:58;;;;;;;10.32;5.38;;;;;;;24.34;49.90;95004.47;5107237;28;20107;-82
2023/07/22 05:04:24;;;;;;;8.20;5.60;;;;;;;24.34;50.19;95007.25;5106674;28;20038;-82
2023/07/22 05:06:50;;;;;;;9.50;6.80;;;;;;;24.38;50.00;95015.44;5107801;28;20126;-82
2023/07/22 05:09:15;;;;;;;10.57;6.22;;;;;;;24.43;50.25;95023.81;5106772;28;20513;-82
2023/07/22 05:11:41;;;;;;;8.68;6.07;;;;;;;24.44;50.17;95019.72;5107768;28;20019;-82
2023/07/22 05:14:06;;;;;;;9.07;6.15;;;;;;;24.47;49.86;95013.03;5115568;28;20100;-82
2023/07/22 05:16:31;;;;;;;8.88;6.07;;;;;;;24.56;49.72;95012.69;5107154;28;20036;-82
2023/07/22 05:18:57;;;;;;;11.85;5.90;;;;;;;24.60;49.61;95015.19;5106747;28;20028;-82
2023/07/22 05:21:23;;;;;;;7.80;6.18;;;;;;;24.56;49.99;95007.06;5106374;28;20054;-82
2023/07/22 05:23:48;;;;;;;11.65;5.85;;;;;;;24.59;49.97;95014.41;5106559;28;20024;-83
2023/07/22 05:26:13;;;;;;;9.98;5.90;;;;;;;24.59;50.17;95016.47;5106115;28;20022;-83
2023/07/22 05:28:39;;;;;;;10.30;7.00;;;;;;;24.63;50.21;95017.69;5106741;28;20024;-82
2023/07/22 05:31:04;;;;;;;9.88;6.80;;;;;;;24.67;50.23;95013.84;5106541;28;20478;-83
2023/07/22 05:33:30;;;;;;;10.00;6.50;;;;;;;24.69;50.26;95014.81;5105719;28;20034;-83
2023/07/22 05:35:55;;;;;;;8.40;6.47;;;;;;;24.72;50.19;95018.66;5106599;28;20108;-83
2023/07/22 05:38:20;;;;;;;11.43;6.85;;;;;;;24.76;50.05;95021.91;5106676;28;20024;-83
2023/07/22 05:40:46;;;;;;;13.70;6.53;;;;;;;24.81;50.00;95026.69;5106635;28;20084;-83
2023/07/22 05:43:11;;;;;;;10.20;6.18;;;;;;;24.86;50.21;95025.88;5106527;28;20020;-83
2023/07/22 05:45:37;;;;;;;7.85;6.80;;;;;;;24.89;50.50;95025.59;5106543;28;20504;-83
2023/07/22 05:48:02;;;;;;;9.55;6.90;;;;;;;24.89;50.32;95027.66;5106312;28;20035;-83
2023/07/22 05:50:28;;;;;;;9.63;6.78;;;;;;;24.94;50.30;95018.34;5106713;28;20020;-83
2023/07/22 05:52:53;;;;;;;14.45;6.70;;;;;;;25.00;50.29;95012.66;5104719;28;20023;-83
2023/07/22 05:55:19;;;;;;;10.93;6.97;;;;;;;25.01;50.54;95006.53;5106422;28;20042;-83
2023/07/22 05:57:44;;;;;;;9.77;6.47;;;;;;;25.09;50.62;95012.31;5105101;28;20032;-83
2023/07/22 06:00:12;;;;;;;9.43;6.85;;;;;;;25.12;50.56;95016.91;5105875;28;20047;-83
2023/07/22 06:02:38;;;;;;;11.68;6.15;;;;;;;25.18;50.48;95031.66;5106152;28;20019;-83
2023/07/22 06:05:03;;;;;;;16.25;8.40;;;;;;;25.25;50.12;95044.34;5105894;28;20089;-83
2023/07/22 06:07:29;;;;;;;10.48;7.10;;;;;;;25.34;50.05;95043.94;5106534;28;20016;-83
2023/07/22 06:09:54;;;;;;;13.43;7.07;;;;;;;25.33;50.16;95046.00;5106280;28;20419;-83
2023/07/22 06:12:20;;;;;;;13.55;6.63;;;;;;;25.41;50.16;95061.00;5106758;28;20713;-83
2023/07/22 06:14:45;;;;;;;11.23;6.47;;;;;;;25.49;49.74;95055.50;5104206;28;20032;-83
2023/07/22 06:17:11;;;;;;;10.23;6.43;;;;;;;25.55;49.45;95052.63;5105983;28;20048;-83
2023/07/22 06:19:36;;;;;;;9.73;6.60;;;;;;;25.61;49.66;95048.44;5104887;28;20027;-83
2023/07/22 06:22:02;;;;;;;13.25;8.05;;;;;;;25.74;49.24;95052.63;5105840;28;20464;-83
2023/07/22 06:24:27;;;;;;;9.18;6.30;;;;;;;25.71;49.14;95048.81;5106184;28;20107;-82
2023/07/22 06:26:52;;;;;;;11.07;7.07;;;;;;;25.81;49.20;95063.28;5105806;28;20036;-82
2023/07/22 06:29:18;;;;;;;7.18;5.85;;;;;;;25.91;48.82;95061.56;5106540;28;20110;-83
2023/07/22 06:31:43;;;;;;;11.18;7.03;;;;;;;25.92;49.35;95066.69;5105459;28;20042;-82
2023/07/22 06:34:08;;;;;;;13.75;6.47;;;;;;;25.99;49.13;95061.72;5109203;28;20070;-82
2023/07/22 06:36:34;;;;;;;13.30;7.13;;;;;;;26.05;48.83;95065.97;5109774;28;20384;-83
2023/07/22 06:38:59;;;;;;;9.85;6.53;;;;;;;26.11;48.82;95072.28;5109417;28;20055;-82
2023/07/22 06:41:25;;;;;;;11.57;6.97;;;;;;;26.10;48.97;95064.38;5109841;28;20039;-82
2023/07/22 06:43:50;;;;;;;10.65;6.63;;;;;;;26.16;49.16;95067.84;5109644;28;20051;-82
2023/07/22 06:46:16;;;;;;;16.08;8.27;;;;;;;26.25;48.65;95067.41;5109745;28;20358;-82
2023/07/22 06:48:41;;;;;;;17.50;7.38;;;;;;;26.30;48.28;95060.94;5109005;28;20020;-82
2023/07/22 06:51:07;;;;;;;13.30;7.70;;;;;;;26.36;48.29;95053.16;5109844;28;20085;-82
2023/07/22 06:53:35;;;;;;;10.20;6.82;;;;;;;26.44;47.91;95065.34;5109112;28;20409;-82
2023/07/22 06:56:01;;;;;;;9.13;6.47;;;;;;;26.50;47.81;95056.03;5109262;28;20035;-82
2023/07/22 06:58:27;;;;;;;9.55;7.93;;;;;;;26.56;47.64;95057.44;5109353;28;20433;-83
2023/07/22 07:00:53;;;;;;;10.73;7.07;;;;;;;26.63;47.59;95050.41;5108847;28;20023;-82
2023/07/22 07:03:19;;;;;;;10.40;6.93;;;;;;;26.63;47.33;95050.41;5109946;28;20028;-82
2023/07/22 07:05:44;;;;;;;11.60;7.10;;;;;;;26.65;47.71;95051.38;5108746;28;20096;-82
2023/07/22 07:08:12;;;;;;;10.40;6.85;;;;;;;26.76;47.38;95056.03;5109940;28;20059;-82
2023/07/22 07:10:39;;;;;;;9.52;6.80;;;;;;;26.83;47.30;95051.81;5108772;28;20500;-83
2023/07/22 07:13:04;;;;;;;13.48;7.13;;;;;;;26.88;47.36;95042.47;5109170;28;20497;-82
2023/07/22 07:15:30;;;;;;;10.70;6.72;;;;;;;26.99;47.04;95048.66;5108905;28;20035;-82
2023/07/22 07:17:55;;;;;;;11.73;7.00;;;;;;;27.07;47.15;95046.00;5108854;28;20030;-82
2023/07/22 07:20:21;;;;;;;10.00;6.45;;;;;;;27.15;46.75;95049.66;5109784;28;20023;-83
2023/07/22 07:22:46;;;;;;;9.98;7.03;;;;;;;27.21;46.74;95047.47;5108628;28;20063;-83
2023/07/22 07:25:12;;;;;;;11.60;6.85;;;;;;;27.29;46.43;95041.16;5109411;28;20066;-82
2023/07/22 07:27:37;;;;;;;12.50;7.38;;;;;;;27.38;46.05;95043.53;5108515;28;20023;-82
2023/07/22 07:30:03;;;;;;;12.20;6.80;;;;;;;27.46;46.57;95042.31;5109410;28;20051;-82
2023/07/22 07:32:28;;;;;;;10.38;7.53;;;;;;;27.59;46.22;95046.44;5108820;28;20425;-82
2023/07/22 07:34:54;;;;;;;13.93;7.35;;;;;;;27.64;46.05;95043.47;5108613;28;20077;-81
2023/07/22 07:37:19;;;;;;;11.23;7.57;;;;;;;27.70;45.06;95032.84;5109115;28;20024;-82
2023/07/22 07:39:45;;;;;;;13.90;7.40;;;;;;;27.89;44.57;95029.06;5106833;28;20062;-82
2023/07/22 07:42:10;;;;;;;12.68;7.63;;;;;;;27.90;44.96;95022.09;5109041;27;20513;-82
2023/07/22 07:44:35;;;;;;;11.85;7.00;;;;;;;28.04;44.94;95029.19;5106644;28;20023;-82
2023/07/22 07:47:01;;;;;;;10.35;7.88;;;;;;;28.05;44.77;95020.19;5108901;27;20076;-82
2023/07/22 07:49:26;;;;;;;8.93;7.18;;;;;;;28.20;44.44;95039.31;5108555;28;20107;-82
2023/07/22 07:51:51;;;;;;;11.00;7.55;;;;;;;28.28;44.33;95026.03;5108721;28;20023;-82
2023/07/22 07:54:17;;;;;;;12.07;7.03;;;;;;;28.34;43.82;95025.16;5108870;28;20112;-82
2023/07/22 07:56:42;;;;;;;11.75;7.05;;;;;;;28.48;43.88;95027.34;5107917;28;20421;-82
2023/07/22 07:59:09;;;;;;;11.43;7.75;;;;;;;28.52;43.85;95027.75;5108877;28;20016;-82
2023/07/22 08:01:35;;;;;;;10.32;7.72;;;;;;;28.57;43.75;95023.25;5107823;28;20024;-82
2023/07/22 08:04:01;;;;;;;13.20;7.50;;;;;;;28.62;43.86;95022.34;5108862;28;20108;-82
2023/07/22 08:06:26;;;;;;;11.60;7.85;;;;;;;28.68;43.54;95019.38;5107794;28;20085;-82
2023/07/22 08:08:51;;;;;;;12.70;7.55;;;;;;;28.77;43.12;95016.78;5108333;28;20482;-82
2023/07/22 08:11:18;;;;;;;12.77;7.45;;;;;;;28.86;43.13;95028.91;5107745;28;20465;-83
2023/07/22 08:13:44;;;;;;;12.90;7.78;;;;;;;28.88;43.16;95014.97;5107343;28;20047;-83
2023/07/22 08:16:12;;;;;;;11.50;7.95;;;;;;;29.01;42.59;95026.94;5108040;28;20039;-83
2023/07/22 08:18:38;;;;;;;16.02;8.38;;;;;;;29.03;42.11;95027.16;5107320;28;20070;-83
2023/07/22 08:21:05;;;;;;;12.35;8.43;;;;;;;29.06;42.25;95025.25;5108136;28;20028;-81
2023/07/22 08:23:30;;;;;;;12.60;7.65;;;;;;;29.12;42.16;95016.63;5107440;28;20388;-82
2023/07/22 08:25:56;;;;;;;12.45;7.32;;;;;;;29.24;42.33;95029.88;5108204;28;20513;-81
2023/07/22 08:28:21;;;;;;;16.75;9.15;;;;;;;29.39;41.57;95026.38;5107403;28;20126;-82
2023/07/22 08:30:50;;;;;;;8.98;7.78;;;;;;;29.46;41.98;95011.47;5107535;28;20031;-82
2023/07/22 08:33:16;;;;;;;14.43;8.35;;;;;;;29.55;41.35;95013.06;5107683;28;20039;-82
2023/07/22 08:35:41;;;;;;;14.77;8.93;;;;;;;29.63;41.56;94999.66;5106857;28;20030;-83
2023/07/22 08:38:08;;;;;;;12.88;8.43;;;;;;;29.75;41.65;94989.47;5107701;28;20020;-81
2023/07/22 08:40:38;;;;;;;14.10;8.13;;;;;;;29.84;41.19;94988.94;5105660;28;20034;-81
2023/07/22 08:43:04;;;;;;;15.73;8.77;;;;;;;29.93;41.26;94984.03;5107692;28;20448;-82
2023/07/22 08:45:36;;;;;;;11.23;7.95;;;;;;;30.11;40.75;94982.97;5105409;28;20482;-82
2023/07/22 08:48:12;;;;;;;13.07;8.32;;;;;;;30.14;40.59;94973.31;5107532;28;20085;-82
2023/07/22 08:50:46;;;;;;;14.13;8.55;;;;;;;30.22;40.79;94971.22;5105701;28;20110;-82
2023/07/22 08:53:15;;;;;;;14.07;8.52;;;;;;;30.35;40.51;94970.28;5106857;28;20027;-82
2023/07/22 08:55:41;;;;;;;15.45;8.05;;;;;;;30.47;40.98;94967.81;5107070;28;20464;-81
2023/07/22 08:58:09;;;;;;;17.48;8.57;;;;;;;30.59;40.58;94954.75;5107020;28;20191;-81
2023/07/22 09:00:35;;;;;;;17.85;8.82;;;;;;;30.78;40.33;94960.78;5105842;28;20561;-81
2023/07/22 09:03:00;;;;;;;15.80;7.93;;;;;;;30.91;39.67;94969.06;5106790;28;20027;-83
2023/07/22 09:05:26;;;;;;;14.85;7.95;;;;;;;31.09;39.23;94955.75;5105346;28;20032;-82
2023/07/22 09:07:52;;;;;;;11.98;8.02;;;;;;;31.23;39.32;94959.09;5105523;28;20122;-81
2023/07/22 09:10:19;;;;;;;12.60;8.10;;;;;;;31.42;38.56;94955.81;5105421;28;20076;-81
2023/07/22 09:12:44;;;;;;;18.42;7.97;;;;;;;31.58;37.30;94956.50;5105519;28;20538;-83
2023/07/22 09:15:12;;;;;;;12.25;7.63;;;;;;;31.75;37.19;94956.56;5106331;28;20086;-81
2023/07/22 09:17:40;;;;;;;12.73;7.55;;;;;;;31.89;37.32;94960.69;5106749;28;20085;-81
2023/07/22 09:20:06;;;;;;;15.35;7.65;;;;;;;32.11;36.84;94958.97;5106331;28;20037;-81
2023/07/22 09:22:33;;;;;;;12.88;7.63;;;;;;;32.20;36.23;94960.44;5106771;28;20023;-82
2023/07/22 09:25:19;;;;;;;14.32;7.85;;;;;;;32.37;36.27;94957.66;5106829;28;20021;-81
2023/07/22 09:27:50;;;;;;;16.40;7.72;;;;;;;32.49;35.48;94949.41;5105859;28;20035;-82
2023/07/22 09:30:32;;;;;;;15.35;7.50;;;;;;;32.55;35.47;94957.69;5105884;28;20020;-82
2023/07/22 09:32:59;;;;;;;11.90;7.70;;;;;;;32.64;35.69;94951.34;5106708;28;20035;-82
2023/07/22 09:35:45;;;;;;;11.98;8.27;;;;;;;32.81;35.56;94950.59;5106855;27;20027;-82
2023/07/22 09:38:11;;;;;;;9.82;7.47;;;;;;;32.92;35.17;94944.41;5107167;28;20023;-82
2023/07/22 09:40:40;;;;;;;12.65;7.68;;;;;;;33.15;35.13;94942.06;5106247;28;20031;-82
2023/07/22 09:43:06;;;;;;;16.70;7.35;;;;;;;33.34;34.57;94935.00;5107364;28;20054;-82
2023/07/22 09:45:31;;;;;;;12.73;7.43;;;;;;;33.51;33.67;94930.03;5105950;28;20110;-82
2023/07/22 09:47:58;;;;;;;13.73;7.88;;;;;;;33.62;34.36;94920.19;5106754;28;20160;-82
2023/07/22 09:50:25;;;;;;;11.70;7.68;;;;;;;33.78;33.64;94920.72;5106514;28;20118;-82
2023/07/22 09:52:55;;;;;;;18.88;9.02;;;;;;;33.99;33.52;94929.53;5106233;28;20153;-82
2023/07/22 09:55:28;;;;;;;10.82;6.65;;;;;;;34.22;32.32;94917.75;5106699;28;20027;-82
2023/07/22 09:57:56;;;;;;;12.80;6.18;;;;;;;34.46;30.56;94926.69;5106249;28;20089;-82
2023/07/22 10:00:25;;;;;;;17.65;5.28;;;;;;;34.62;28.34;94915.75;5107067;28;20057;-83
2023/07/22 10:02:51;;;;;;;17.05;5.20;;;;;;;34.72;28.01;94916.50;5105950;28;20020;-82
2023/07/22 10:05:20;;;;;;;9.48;4.65;;;;;;;34.92;28.43;94923.72;5106610;28;20028;-82
2023/07/22 10:07:57;;;;;;;17.30;5.68;;;;;;;35.09;28.17;94912.16;5107599;28;20023;-82
2023/07/22 10:10:30;;;;;;;11.40;5.18;;;;;;;35.07;27.06;94897.75;5110503;28;20062;-82
2023/07/22 10:12:57;;;;;;;15.90;5.65;;;;;;;35.44;27.62;94916.81;5110898;28;20037;-82
2023/07/22 10:15:25;;;;;;;16.67;6.35;;;;;;;35.50;27.62;94917.25;5110143;28;20102;-82
2023/07/22 10:17:55;;;;;;;12.82;5.15;;;;;;;35.65;26.89;94929.09;5110449;28;20104;-82
2023/07/22 10:20:21;;;;;;;18.10;5.38;;;;;;;35.74;26.98;94912.53;5110340;28;20097;-82
2023/07/22 10:22:47;;;;;;;14.00;5.60;;;;;;;35.92;26.98;94908.13;5110006;28;20459;-83
2023/07/22 10:25:15;;;;;;;21.40;5.97;;;;;;;36.00;26.76;94917.25;5108918;28;20110;-82
2023/07/22 10:27:41;;;;;;;16.15;5.78;;;;;;;35.97;27.13;94917.75;5108676;28;20100;-82
2023/07/22 10:30:11;;;;;;;17.17;6.05;;;;;;;35.98;26.87;94904.94;5110804;28;20095;-82
2023/07/22 10:32:40;;;;;;;15.75;5.63;;;;;;;35.98;26.69;94907.78;5110105;28;20052;-82
2023/07/22 10:35:33;;;;;;;18.27;5.55;;;;;;;36.06;27.09;94897.66;5110634;28;20030;-82
2023/07/22 10:38:11;;;;;;;17.60;5.07;;;;;;;36.27;27.35;94901.94;5106667;28;20039;-82
2023/07/22 10:40:53;;;;;;;16.08;5.60;;;;;;;36.61;26.08;94900.69;5109706;28;20104;-82
2023/07/22 10:43:27;;;;;;;15.32;5.45;;;;;;;36.72;25.01;94896.38;5110506;28;20028;-83
2023/07/22 10:45:55;;;;;;;17.13;5.40;;;;;;;36.85;24.30;94899.44;5109347;28;20070;-82
2023/07/22 10:48:22;;;;;;;16.95;5.25;;;;;;;37.06;24.89;94895.81;5108383;28;20479;-82
2023/07/22 10:50:51;;;;;;;14.73;4.97;;;;;;;37.08;23.86;94875.91;5109340;28;20020;-83
2023/07/22 10:53:19;;;;;;;18.75;5.60;;;;;;;37.40;24.28;94888.75;5109536;27;20112;-83
2023/07/22 10:56:13;;;;;;;17.27;5.50;;;;;;;37.59;23.90;94895.63;5109929;28;20062;-82
2023/07/22 10:58:44;;;;;;;17.63;5.00;;;;;;;37.75;23.83;94888.06;5109202;28;20028;-82
2023/07/22 11:01:28;;;;;;;23.75;6.80;;;;;;;37.92;23.82;94881.97;5110120;27;20027;-82
2023/07/22 11:04:02;;;;;;;16.15;5.68;;;;;;;38.05;22.93;94883.47;5109505;27;20410;-81
2023/07/22 11:06:29;;;;;;;21.92;5.68;;;;;;;38.16;22.71;94879.09;5109322;28;20031;-83
2023/07/22 11:08:55;;;;;;;20.27;5.70;;;;;;;38.23;22.54;94870.22;5109641;28;20027;-81
2023/07/22 11:11:20;;;;;;;17.40;4.72;;;;;;;38.29;21.93;94869.13;5109112;28;20468;-82
2023/07/22 11:13:46;;;;;;;14.27;5.75;;;;;;;38.42;22.43;94874.22;5107914;28;20084;-82
2023/07/22 11:16:12;;;;;;;20.95;5.05;;;;;;;38.50;22.38;94871.84;5108768;28;20044;-81
2023/07/22 11:18:41;;;;;;;25.08;4.75;;;;;;;38.46;21.45;94883.84;5108895;28;20032;-82
2023/07/22 11:21:11;;;;;;;23.08;5.43;;;;;;;38.41;22.45;94872.72;5109164;28;20036;-82
2023/07/22 11:23:36;;;;;;;14.63;5.20;;;;;;;38.41;22.36;94875.59;5108718;28;20029;-82